sensor_id;sensor_type;location;lat;lon;timestamp;temperature;humidity
49579;DHT22;35483;50.828;3.228;2023-05-07T00:01:32;17.70;90.80
49579;DHT22;35483;50.828;3.228;2023-05-07T00:03:57;17.70;90.80
49579;DHT22;35483;50.828;3.228;2023-05-07T00:06:23;17.70;90.80
49579;DHT22;35483;50.828;3.228;2023-05-07T00:08:49;17.70;90.80
49579;DHT22;35483;50.828;3.228;2023-05-07T00:11:15;17.60;91.10
49579;DHT22;35483;50.828;3.228;2023-05-07T00:13:40;17.60;90.90
49579;DHT22;35483;50.828;3.228;2023-05-07T00:16:06;17.60;90.90
49579;DHT22;35483;50.828;3.228;2023-05-07T00:18:32;17.60;90.90
49579;DHT22;35483;50.828;3.228;2023-05-07T00:20:58;17.60;90.90
49579;DHT22;35483;50.828;3.228;2023-05-07T00:23:23;17.50;90.90
49579;DHT22;35483;50.828;3.228;2023-05-07T00:25:49;17.50;91.00
49579;DHT22;35483;50.828;3.228;2023-05-07T00:28:15;17.50;91.00
49579;DHT22;35483;50.828;3.228;2023-05-07T00:30:41;17.50;91.10
49579;DHT22;35483;50.828;3.228;2023-05-07T00:33:07;17.50;91.10
49579;DHT22;35483;50.828;3.228;2023-05-07T00:35:32;17.50;91.10
49579;DHT22;35483;50.828;3.228;2023-05-07T00:37:58;17.50;91.10
49579;DHT22;35483;50.828;3.228;2023-05-07T00:40:25;17.50;91.00
49579;DHT22;35483;50.828;3.228;2023-05-07T00:42:51;17.50;91.10
49579;DHT22;35483;50.828;3.228;2023-05-07T00:45:26;17.50;91.10
49579;DHT22;35483;50.828;3.228;2023-05-07T00:47:54;17.50;91.10
49579;DHT22;35483;50.828;3.228;2023-05-07T00:50:20;17.50;91.10
49579;DHT22;35483;50.828;3.228;2023-05-07T00:52:46;17.50;91.10
49579;DHT22;35483;50.828;3.228;2023-05-07T00:55:12;17.50;91.10
49579;DHT22;35483;50.828;3.228;2023-05-07T00:57:41;17.50;91.10
49579;DHT22;35483;50.828;3.228;2023-05-07T01:00:08;17.50;91.10
49579;DHT22;35483;50.828;3.228;2023-05-07T01:02:41;17.50;91.20
49579;DHT22;35483;50.828;3.228;2023-05-07T01:05:10;17.50;91.50
49579;DHT22;35483;50.828;3.228;2023-05-07T01:07:41;17.40;91.20
49579;DHT22;35483;50.828;3.228;2023-05-07T01:10:08;17.40;91.30
49579;DHT22;35483;50.828;3.228;2023-05-07T01:12:36;17.30;91.30
49579;DHT22;35483;50.828;3.228;2023-05-07T01:15:03;17.30;91.40
49579;DHT22;35483;50.828;3.228;2023-05-07T01:17:34;17.30;91.40
49579;DHT22;35483;50.828;3.228;2023-05-07T01:20:01;17.30;91.40
49579;DHT22;35483;50.828;3.228;2023-05-07T01:22:33;17.30;91.30
49579;DHT22;35483;50.828;3.228;2023-05-07T01:25:00;17.30;91.40
49579;DHT22;35483;50.828;3.228;2023-05-07T01:27:27;17.30;91.40
49579;DHT22;35483;50.828;3.228;2023-05-07T01:29:52;17.30;91.40
49579;DHT22;35483;50.828;3.228;2023-05-07T01:32:23;17.30;91.40
49579;DHT22;35483;50.828;3.228;2023-05-07T01:34:54;17.30;91.60
49579;DHT22;35483;50.828;3.228;2023-05-07T01:37:21;17.30;91.50
49579;DHT22;35483;50.828;3.228;2023-05-07T01:39:48;17.30;91.50
49579;DHT22;35483;50.828;3.228;2023-05-07T01:42:13;17.30;91.50
49579;DHT22;35483;50.828;3.228;2023-05-07T01:44:39;17.30;91.50
49579;DHT22;35483;50.828;3.228;2023-05-07T01:47:06;17.30;91.50
49579;DHT22;35483;50.828;3.228;2023-05-07T01:49:32;17.30;91.50
49579;DHT22;35483;50.828;3.228;2023-05-07T01:51:58;17.30;91.40
49579;DHT22;35483;50.828;3.228;2023-05-07T01:54:27;17.40;91.40
49579;DHT22;35483;50.828;3.228;2023-05-07T01:56:55;17.40;91.50
49579;DHT22;35483;50.828;3.228;2023-05-07T01:59:21;17.40;91.40
49579;DHT22;35483;50.828;3.228;2023-05-07T02:01:47;17.40;91.40
49579;DHT22;35483;50.828;3.228;2023-05-07T02:04:13;17.40;91.40
49579;DHT22;35483;50.828;3.228;2023-05-07T02:06:39;17.40;91.40
49579;DHT22;35483;50.828;3.228;2023-05-07T02:09:05;17.40;91.40
49579;DHT22;35483;50.828;3.228;2023-05-07T02:11:30;17.30;91.40
49579;DHT22;35483;50.828;3.228;2023-05-07T02:13:56;17.40;91.40
49579;DHT22;35483;50.828;3.228;2023-05-07T02:16:22;17.30;91.50
49579;DHT22;35483;50.828;3.228;2023-05-07T02:18:49;17.30;91.60
49579;DHT22;35483;50.828;3.228;2023-05-07T02:21:15;17.20;91.70
49579;DHT22;35483;50.828;3.228;2023-05-07T02:23:41;17.20;91.60
49579;DHT22;35483;50.828;3.228;2023-05-07T02:26:06;17.10;91.60
49579;DHT22;35483;50.828;3.228;2023-05-07T02:28:32;17.10;91.70
49579;DHT22;35483;50.828;3.228;2023-05-07T02:31:02;17.10;91.70
49579;DHT22;35483;50.828;3.228;2023-05-07T02:33:28;17.10;91.70
49579;DHT22;35483;50.828;3.228;2023-05-07T02:35:54;17.10;91.60
49579;DHT22;35483;50.828;3.228;2023-05-07T02:38:20;17.10;91.60
49579;DHT22;35483;50.828;3.228;2023-05-07T02:40:45;17.10;91.60
49579;DHT22;35483;50.828;3.228;2023-05-07T02:43:11;17.10;91.60
49579;DHT22;35483;50.828;3.228;2023-05-07T02:45:37;17.10;91.70
49579;DHT22;35483;50.828;3.228;2023-05-07T02:48:03;17.10;91.80
49579;DHT22;35483;50.828;3.228;2023-05-07T02:50:30;17.00;91.70
49579;DHT22;35483;50.828;3.228;2023-05-07T02:52:58;17.00;91.70
49579;DHT22;35483;50.828;3.228;2023-05-07T02:55:24;17.00;91.70
49579;DHT22;35483;50.828;3.228;2023-05-07T02:57:50;17.00;91.70
49579;DHT22;35483;50.828;3.228;2023-05-07T03:00:19;17.00;91.70
49579;DHT22;35483;50.828;3.228;2023-05-07T03:02:45;17.00;91.80
49579;DHT22;35483;50.828;3.228;2023-05-07T03:05:11;17.00;91.70
49579;DHT22;35483;50.828;3.228;2023-05-07T03:07:38;17.00;91.70
49579;DHT22;35483;50.828;3.228;2023-05-07T03:10:04;17.00;91.70
49579;DHT22;35483;50.828;3.228;2023-05-07T03:12:30;17.00;91.70
49579;DHT22;35483;50.828;3.228;2023-05-07T03:14:56;17.00;91.70
49579;DHT22;35483;50.828;3.228;2023-05-07T03:17:22;17.00;91.80
49579;DHT22;35483;50.828;3.228;2023-05-07T03:19:48;17.00;91.90
49579;DHT22;35483;50.828;3.228;2023-05-07T03:22:14;17.00;91.80
49579;DHT22;35483;50.828;3.228;2023-05-07T03:24:40;17.00;91.90
49579;DHT22;35483;50.828;3.228;2023-05-07T03:27:06;17.00;91.90
49579;DHT22;35483;50.828;3.228;2023-05-07T03:29:31;17.00;92.00
49579;DHT22;35483;50.828;3.228;2023-05-07T03:31:57;17.00;91.90
49579;DHT22;35483;50.828;3.228;2023-05-07T03:34:23;17.00;92.00
49579;DHT22;35483;50.828;3.228;2023-05-07T03:36:50;17.00;92.00
49579;DHT22;35483;50.828;3.228;2023-05-07T03:39:16;17.00;92.10
49579;DHT22;35483;50.828;3.228;2023-05-07T03:41:42;17.00;92.00
49579;DHT22;35483;50.828;3.228;2023-05-07T03:44:07;17.00;92.00
49579;DHT22;35483;50.828;3.228;2023-05-07T03:46:33;17.10;92.00
49579;DHT22;35483;50.828;3.228;2023-05-07T03:48:59;17.10;92.10
49579;DHT22;35483;50.828;3.228;2023-05-07T03:51:25;17.00;92.20
49579;DHT22;35483;50.828;3.228;2023-05-07T03:53:51;17.00;92.20
49579;DHT22;35483;50.828;3.228;2023-05-07T03:56:22;17.00;92.10
49579;DHT22;35483;50.828;3.228;2023-05-07T03:58:57;17.00;92.10
49579;DHT22;35483;50.828;3.228;2023-05-07T04:01:23;17.00;92.10
49579;DHT22;35483;50.828;3.228;2023-05-07T04:03:49;17.00;92.20
49579;DHT22;35483;50.828;3.228;2023-05-07T04:06:18;17.00;92.20
49579;DHT22;35483;50.828;3.228;2023-05-07T04:08:44;17.00;92.40
49579;DHT22;35483;50.828;3.228;2023-05-07T04:11:11;17.00;92.30
49579;DHT22;35483;50.828;3.228;2023-05-07T04:13:37;17.00;92.40
49579;DHT22;35483;50.828;3.228;2023-05-07T04:16:04;16.90;92.40
49579;DHT22;35483;50.828;3.228;2023-05-07T04:18:30;16.90;92.40
49579;DHT22;35483;50.828;3.228;2023-05-07T04:20:56;17.00;92.30
49579;DHT22;35483;50.828;3.228;2023-05-07T04:23:22;17.00;92.30
49579;DHT22;35483;50.828;3.228;2023-05-07T04:25:48;17.00;92.30
49579;DHT22;35483;50.828;3.228;2023-05-07T04:28:14;17.00;92.20
49579;DHT22;35483;50.828;3.228;2023-05-07T04:30:41;17.10;92.30
49579;DHT22;35483;50.828;3.228;2023-05-07T04:33:07;17.10;92.30
49579;DHT22;35483;50.828;3.228;2023-05-07T04:35:34;17.10;92.20
49579;DHT22;35483;50.828;3.228;2023-05-07T04:38:00;17.10;92.20
49579;DHT22;35483;50.828;3.228;2023-05-07T04:40:27;17.10;92.30
49579;DHT22;35483;50.828;3.228;2023-05-07T04:42:53;17.00;92.30
49579;DHT22;35483;50.828;3.228;2023-05-07T04:45:19;17.00;92.30
49579;DHT22;35483;50.828;3.228;2023-05-07T04:47:45;17.10;92.30
49579;DHT22;35483;50.828;3.228;2023-05-07T04:50:11;17.00;92.30
49579;DHT22;35483;50.828;3.228;2023-05-07T04:52:37;17.10;92.30
49579;DHT22;35483;50.828;3.228;2023-05-07T04:55:04;17.10;92.30
49579;DHT22;35483;50.828;3.228;2023-05-07T04:57:30;17.10;92.30
49579;DHT22;35483;50.828;3.228;2023-05-07T04:59:56;17.10;92.40
49579;DHT22;35483;50.828;3.228;2023-05-07T05:02:22;17.10;92.40
49579;DHT22;35483;50.828;3.228;2023-05-07T05:04:48;17.00;92.40
49579;DHT22;35483;50.828;3.228;2023-05-07T05:07:14;17.00;92.40
49579;DHT22;35483;50.828;3.228;2023-05-07T05:09:40;17.00;92.50
49579;DHT22;35483;50.828;3.228;2023-05-07T05:12:06;17.00;92.40
49579;DHT22;35483;50.828;3.228;2023-05-07T05:14:33;17.10;92.40
49579;DHT22;35483;50.828;3.228;2023-05-07T05:16:58;17.10;92.40
49579;DHT22;35483;50.828;3.228;2023-05-07T05:19:24;17.20;92.40
49579;DHT22;35483;50.828;3.228;2023-05-07T05:21:50;17.20;92.50
49579;DHT22;35483;50.828;3.228;2023-05-07T05:24:15;17.10;92.50
49579;DHT22;35483;50.828;3.228;2023-05-07T05:26:41;17.20;92.50
49579;DHT22;35483;50.828;3.228;2023-05-07T05:29:07;17.20;92.50
49579;DHT22;35483;50.828;3.228;2023-05-07T05:31:33;17.20;92.50
49579;DHT22;35483;50.828;3.228;2023-05-07T05:33:59;17.30;92.50
49579;DHT22;35483;50.828;3.228;2023-05-07T05:36:25;17.30;92.60
49579;DHT22;35483;50.828;3.228;2023-05-07T05:38:51;17.40;92.70
49579;DHT22;35483;50.828;3.228;2023-05-07T05:41:17;17.40;92.60
49579;DHT22;35483;50.828;3.228;2023-05-07T05:43:43;17.40;92.70
49579;DHT22;35483;50.828;3.228;2023-05-07T05:46:09;17.40;92.80
49579;DHT22;35483;50.828;3.228;2023-05-07T05:48:37;17.40;92.70
49579;DHT22;35483;50.828;3.228;2023-05-07T05:51:03;17.40;92.80
49579;DHT22;35483;50.828;3.228;2023-05-07T05:53:29;17.40;92.70
49579;DHT22;35483;50.828;3.228;2023-05-07T05:55:55;17.50;92.80
49579;DHT22;35483;50.828;3.228;2023-05-07T05:58:21;17.40;93.00
49579;DHT22;35483;50.828;3.228;2023-05-07T06:00:47;17.30;93.10
49579;DHT22;35483;50.828;3.228;2023-05-07T06:03:13;17.30;93.10
49579;DHT22;35483;50.828;3.228;2023-05-07T06:05:39;17.30;93.20
49579;DHT22;35483;50.828;3.228;2023-05-07T06:08:05;17.30;93.40
49579;DHT22;35483;50.828;3.228;2023-05-07T06:10:31;17.20;93.40
49579;DHT22;35483;50.828;3.228;2023-05-07T06:12:57;17.20;93.80
49579;DHT22;35483;50.828;3.228;2023-05-07T06:15:23;17.20;93.60
49579;DHT22;35483;50.828;3.228;2023-05-07T06:17:49;17.20;93.60
49579;DHT22;35483;50.828;3.228;2023-05-07T06:20:17;17.20;93.60
49579;DHT22;35483;50.828;3.228;2023-05-07T06:22:43;17.20;93.70
49579;DHT22;35483;50.828;3.228;2023-05-07T06:25:09;17.20;93.60
49579;DHT22;35483;50.828;3.228;2023-05-07T06:27:35;17.20;93.70
49579;DHT22;35483;50.828;3.228;2023-05-07T06:30:01;17.30;93.80
49579;DHT22;35483;50.828;3.228;2023-05-07T06:32:27;17.30;93.80
49579;DHT22;35483;50.828;3.228;2023-05-07T06:34:53;17.30;93.90
49579;DHT22;35483;50.828;3.228;2023-05-07T06:37:19;17.30;93.90
49579;DHT22;35483;50.828;3.228;2023-05-07T06:39:45;17.30;94.10
49579;DHT22;35483;50.828;3.228;2023-05-07T06:42:11;17.30;93.80
49579;DHT22;35483;50.828;3.228;2023-05-07T06:44:37;17.30;93.90
49579;DHT22;35483;50.828;3.228;2023-05-07T06:47:04;17.40;93.90
49579;DHT22;35483;50.828;3.228;2023-05-07T06:49:31;17.50;94.00
49579;DHT22;35483;50.828;3.228;2023-05-07T06:51:57;17.50;94.10
49579;DHT22;35483;50.828;3.228;2023-05-07T06:54:23;17.50;94.00
49579;DHT22;35483;50.828;3.228;2023-05-07T06:56:49;17.50;94.10
49579;DHT22;35483;50.828;3.228;2023-05-07T06:59:15;17.50;94.10
49579;DHT22;35483;50.828;3.228;2023-05-07T07:01:41;17.60;94.10
49579;DHT22;35483;50.828;3.228;2023-05-07T07:04:07;17.60;94.20
49579;DHT22;35483;50.828;3.228;2023-05-07T07:06:33;17.60;94.30
49579;DHT22;35483;50.828;3.228;2023-05-07T07:09:00;17.60;94.30
49579;DHT22;35483;50.828;3.228;2023-05-07T07:11:26;17.60;94.40
49579;DHT22;35483;50.828;3.228;2023-05-07T07:13:52;17.60;94.30
49579;DHT22;35483;50.828;3.228;2023-05-07T07:16:21;17.70;94.30
49579;DHT22;35483;50.828;3.228;2023-05-07T07:18:47;17.60;94.40
49579;DHT22;35483;50.828;3.228;2023-05-07T07:21:13;17.60;94.50
49579;DHT22;35483;50.828;3.228;2023-05-07T07:23:39;17.70;94.50
49579;DHT22;35483;50.828;3.228;2023-05-07T07:26:05;17.70;94.60
49579;DHT22;35483;50.828;3.228;2023-05-07T07:28:32;17.70;94.60
49579;DHT22;35483;50.828;3.228;2023-05-07T07:30:58;17.70;94.60
49579;DHT22;35483;50.828;3.228;2023-05-07T07:33:24;17.70;94.50
49579;DHT22;35483;50.828;3.228;2023-05-07T07:35:50;17.70;94.60
49579;DHT22;35483;50.828;3.228;2023-05-07T07:38:16;17.80;94.60
49579;DHT22;35483;50.828;3.228;2023-05-07T07:40:41;17.80;94.60
49579;DHT22;35483;50.828;3.228;2023-05-07T07:43:09;17.80;94.80
49579;DHT22;35483;50.828;3.228;2023-05-07T07:45:35;17.80;94.90
49579;DHT22;35483;50.828;3.228;2023-05-07T07:48:01;17.80;94.80
49579;DHT22;35483;50.828;3.228;2023-05-07T07:50:27;17.80;94.80
49579;DHT22;35483;50.828;3.228;2023-05-07T07:52:53;17.80;94.80
49579;DHT22;35483;50.828;3.228;2023-05-07T07:55:20;17.90;94.70
49579;DHT22;35483;50.828;3.228;2023-05-07T07:57:49;17.90;94.80
49579;DHT22;35483;50.828;3.228;2023-05-07T08:00:16;18.00;94.90
49579;DHT22;35483;50.828;3.228;2023-05-07T08:02:42;18.00;94.70
49579;DHT22;35483;50.828;3.228;2023-05-07T08:05:08;18.00;94.80
49579;DHT22;35483;50.828;3.228;2023-05-07T08:07:34;18.10;94.80
49579;DHT22;35483;50.828;3.228;2023-05-07T08:10:00;18.10;94.80
49579;DHT22;35483;50.828;3.228;2023-05-07T08:12:26;18.20;94.80
49579;DHT22;35483;50.828;3.228;2023-05-07T08:14:52;18.20;94.80
49579;DHT22;35483;50.828;3.228;2023-05-07T08:17:18;18.20;94.80
49579;DHT22;35483;50.828;3.228;2023-05-07T08:19:44;18.20;94.90
49579;DHT22;35483;50.828;3.228;2023-05-07T08:22:11;18.30;94.90
49579;DHT22;35483;50.828;3.228;2023-05-07T08:24:37;18.30;94.90
49579;DHT22;35483;50.828;3.228;2023-05-07T08:27:03;18.40;95.00
49579;DHT22;35483;50.828;3.228;2023-05-07T08:29:29;18.40;94.80
49579;DHT22;35483;50.828;3.228;2023-05-07T08:31:55;18.50;94.80
49579;DHT22;35483;50.828;3.228;2023-05-07T08:34:22;18.60;95.00
49579;DHT22;35483;50.828;3.228;2023-05-07T08:36:48;18.60;94.90
49579;DHT22;35483;50.828;3.228;2023-05-07T08:39:17;18.50;94.80
49579;DHT22;35483;50.828;3.228;2023-05-07T08:41:48;18.60;95.00
49579;DHT22;35483;50.828;3.228;2023-05-07T08:44:17;18.60;95.30
49579;DHT22;35483;50.828;3.228;2023-05-07T08:46:45;18.60;94.90
49579;DHT22;35483;50.828;3.228;2023-05-07T08:49:13;18.60;95.00
49579;DHT22;35483;50.828;3.228;2023-05-07T08:51:41;18.70;94.90
49579;DHT22;35483;50.828;3.228;2023-05-07T08:54:08;18.70;95.00
49579;DHT22;35483;50.828;3.228;2023-05-07T08:56:34;18.80;94.80
49579;DHT22;35483;50.828;3.228;2023-05-07T08:59:01;18.80;94.90
49579;DHT22;35483;50.828;3.228;2023-05-07T09:01:27;18.90;94.80
49579;DHT22;35483;50.828;3.228;2023-05-07T09:03:53;18.90;94.80
49579;DHT22;35483;50.828;3.228;2023-05-07T09:06:19;19.00;94.80
49579;DHT22;35483;50.828;3.228;2023-05-07T09:08:52;19.00;94.80
49579;DHT22;35483;50.828;3.228;2023-05-07T09:11:23;19.20;95.70
49579;DHT22;35483;50.828;3.228;2023-05-07T09:13:53;19.20;95.10
49579;DHT22;35483;50.828;3.228;2023-05-07T09:16:21;19.20;95.00
49579;DHT22;35483;50.828;3.228;2023-05-07T09:18:51;19.30;94.90
49579;DHT22;35483;50.828;3.228;2023-05-07T09:21:18;19.20;95.10
49579;DHT22;35483;50.828;3.228;2023-05-07T09:23:44;19.20;95.00
49579;DHT22;35483;50.828;3.228;2023-05-07T09:26:10;19.20;94.80
49579;DHT22;35483;50.828;3.228;2023-05-07T09:28:42;19.20;94.80
49579;DHT22;35483;50.828;3.228;2023-05-07T09:31:09;19.30;94.80
49579;DHT22;35483;50.828;3.228;2023-05-07T09:33:36;19.40;94.80
49579;DHT22;35483;50.828;3.228;2023-05-07T09:36:06;19.40;94.80
49579;DHT22;35483;50.828;3.228;2023-05-07T09:38:33;19.40;95.00
49579;DHT22;35483;50.828;3.228;2023-05-07T09:41:07;19.50;95.50
49579;DHT22;35483;50.828;3.228;2023-05-07T09:43:38;19.50;95.30
49579;DHT22;35483;50.828;3.228;2023-05-07T09:46:12;19.60;95.20
49579;DHT22;35483;50.828;3.228;2023-05-07T09:48:41;19.80;95.30
49579;DHT22;35483;50.828;3.228;2023-05-07T09:51:21;19.90;94.80
49579;DHT22;35483;50.828;3.228;2023-05-07T09:53:48;19.90;95.10
49579;DHT22;35483;50.828;3.228;2023-05-07T09:56:16;20.00;94.60
49579;DHT22;35483;50.828;3.228;2023-05-07T09:58:43;20.00;94.70
49579;DHT22;35483;50.828;3.228;2023-05-07T10:01:11;20.00;94.70
49579;DHT22;35483;50.828;3.228;2023-05-07T10:03:41;20.00;94.80
49579;DHT22;35483;50.828;3.228;2023-05-07T10:06:09;19.90;95.20
49579;DHT22;35483;50.828;3.228;2023-05-07T10:08:36;19.90;94.90
49579;DHT22;35483;50.828;3.228;2023-05-07T10:11:04;19.90;94.80
49579;DHT22;35483;50.828;3.228;2023-05-07T10:13:32;20.00;94.70
49579;DHT22;35483;50.828;3.228;2023-05-07T10:16:02;20.10;94.70
49579;DHT22;35483;50.828;3.228;2023-05-07T10:18:33;20.10;94.50
49579;DHT22;35483;50.828;3.228;2023-05-07T10:21:20;20.20;94.40
49579;DHT22;35483;50.828;3.228;2023-05-07T10:23:54;20.20;94.70
49579;DHT22;35483;50.828;3.228;2023-05-07T10:26:23;20.20;94.40
49579;DHT22;35483;50.828;3.228;2023-05-07T10:28:57;20.20;94.20
49579;DHT22;35483;50.828;3.228;2023-05-07T10:31:48;20.10;94.20
49579;DHT22;35483;50.828;3.228;2023-05-07T10:34:21;20.00;94.90
49579;DHT22;35483;50.828;3.228;2023-05-07T10:36:49;20.00;94.20
49579;DHT22;35483;50.828;3.228;2023-05-07T10:39:16;19.90;94.20
49579;DHT22;35483;50.828;3.228;2023-05-07T10:41:42;19.90;94.20
49579;DHT22;35483;50.828;3.228;2023-05-07T10:44:08;19.90;94.10
49579;DHT22;35483;50.828;3.228;2023-05-07T10:46:34;19.90;94.00
49579;DHT22;35483;50.828;3.228;2023-05-07T10:51:29;19.90;94.10
49579;DHT22;35483;50.828;3.228;2023-05-07T10:56:37;20.00;94.90
49579;DHT22;35483;50.828;3.228;2023-05-07T11:01:57;20.00;95.80
49579;DHT22;35483;50.828;3.228;2023-05-07T11:04:25;19.90;94.40
49579;DHT22;35483;50.828;3.228;2023-05-07T11:17:29;19.90;94.60
49579;DHT22;35483;50.828;3.228;2023-05-07T11:19:57;19.90;94.60
49579;DHT22;35483;50.828;3.228;2023-05-07T11:25:05;19.90;95.40
49579;DHT22;35483;50.828;3.228;2023-05-07T11:27:32;19.90;95.10
49579;DHT22;35483;50.828;3.228;2023-05-07T11:29:59;20.00;94.60
49579;DHT22;35483;50.828;3.228;2023-05-07T11:32:30;20.00;94.60
49579;DHT22;35483;50.828;3.228;2023-05-07T11:34:59;20.00;94.70
49579;DHT22;35483;50.828;3.228;2023-05-07T11:37:26;20.10;94.70
49579;DHT22;35483;50.828;3.228;2023-05-07T11:40:08;20.10;94.60
49579;DHT22;35483;50.828;3.228;2023-05-07T11:42:38;20.10;95.30
49579;DHT22;35483;50.828;3.228;2023-05-07T11:45:06;20.20;94.60
49579;DHT22;35483;50.828;3.228;2023-05-07T11:47:32;20.20;94.70
49579;DHT22;35483;50.828;3.228;2023-05-07T11:50:06;20.30;94.60
49579;DHT22;35483;50.828;3.228;2023-05-07T11:52:33;20.30;94.60
49579;DHT22;35483;50.828;3.228;2023-05-07T11:55:00;20.30;94.40
49579;DHT22;35483;50.828;3.228;2023-05-07T11:57:27;20.20;94.50
49579;DHT22;35483;50.828;3.228;2023-05-07T11:59:54;20.10;94.60
49579;DHT22;35483;50.828;3.228;2023-05-07T12:02:20;20.10;94.50
49579;DHT22;35483;50.828;3.228;2023-05-07T12:04:46;20.00;94.50
49579;DHT22;35483;50.828;3.228;2023-05-07T12:07:14;20.00;94.60
49579;DHT22;35483;50.828;3.228;2023-05-07T12:09:41;20.10;94.50
49579;DHT22;35483;50.828;3.228;2023-05-07T12:12:07;20.10;94.50
49579;DHT22;35483;50.828;3.228;2023-05-07T12:14:38;20.20;94.50
49579;DHT22;35483;50.828;3.228;2023-05-07T12:17:05;20.20;94.70
49579;DHT22;35483;50.828;3.228;2023-05-07T12:19:31;20.20;94.40
49579;DHT22;35483;50.828;3.228;2023-05-07T12:21:59;20.40;94.40
49579;DHT22;35483;50.828;3.228;2023-05-07T12:24:25;20.40;94.30
49579;DHT22;35483;50.828;3.228;2023-05-07T12:26:51;20.50;94.40
49579;DHT22;35483;50.828;3.228;2023-05-07T12:29:21;20.60;94.40
49579;DHT22;35483;50.828;3.228;2023-05-07T12:31:49;20.80;94.60
49579;DHT22;35483;50.828;3.228;2023-05-07T12:34:16;20.90;94.30
49579;DHT22;35483;50.828;3.228;2023-05-07T12:36:42;21.00;94.20
49579;DHT22;35483;50.828;3.228;2023-05-07T12:39:08;21.20;94.20
49579;DHT22;35483;50.828;3.228;2023-05-07T12:41:54;21.30;94.30
49579;DHT22;35483;50.828;3.228;2023-05-07T12:44:24;21.30;95.10
49579;DHT22;35483;50.828;3.228;2023-05-07T12:46:51;21.40;94.40
49579;DHT22;35483;50.828;3.228;2023-05-07T12:49:17;21.50;94.10
49579;DHT22;35483;50.828;3.228;2023-05-07T12:51:49;21.60;94.10
49579;DHT22;35483;50.828;3.228;2023-05-07T12:54:37;21.70;94.20
49579;DHT22;35483;50.828;3.228;2023-05-07T12:57:08;21.80;95.20
49579;DHT22;35483;50.828;3.228;2023-05-07T12:59:38;21.80;94.50
49579;DHT22;35483;50.828;3.228;2023-05-07T13:02:05;21.90;94.20
49579;DHT22;35483;50.828;3.228;2023-05-07T13:04:32;22.00;94.10
49579;DHT22;35483;50.828;3.228;2023-05-07T13:06:59;22.20;93.90
49579;DHT22;35483;50.828;3.228;2023-05-07T13:09:25;22.30;93.70
49579;DHT22;35483;50.828;3.228;2023-05-07T13:11:51;22.50;93.60
49579;DHT22;35483;50.828;3.228;2023-05-07T13:14:17;22.50;93.60
49579;DHT22;35483;50.828;3.228;2023-05-07T13:16:43;22.50;93.60
49579;DHT22;35483;50.828;3.228;2023-05-07T13:19:09;22.50;93.50
49579;DHT22;35483;50.828;3.228;2023-05-07T13:21:36;22.60;93.40
49579;DHT22;35483;50.828;3.228;2023-05-07T13:24:02;22.60;93.40
49579;DHT22;35483;50.828;3.228;2023-05-07T13:26:29;22.50;93.40
49579;DHT22;35483;50.828;3.228;2023-05-07T13:28:55;22.40;93.50
49579;DHT22;35483;50.828;3.228;2023-05-07T13:31:21;22.30;93.50
49579;DHT22;35483;50.828;3.228;2023-05-07T13:33:48;22.20;93.50
49579;DHT22;35483;50.828;3.228;2023-05-07T13:36:14;22.20;93.50
49579;DHT22;35483;50.828;3.228;2023-05-07T13:38:40;22.30;93.50
49579;DHT22;35483;50.828;3.228;2023-05-07T13:41:06;22.30;93.40
49579;DHT22;35483;50.828;3.228;2023-05-07T13:43:32;22.20;93.50
49579;DHT22;35483;50.828;3.228;2023-05-07T13:45:59;22.10;93.60
49579;DHT22;35483;50.828;3.228;2023-05-07T13:48:26;22.00;93.60
49579;DHT22;35483;50.828;3.228;2023-05-07T13:50:51;22.00;93.70
49579;DHT22;35483;50.828;3.228;2023-05-07T13:53:18;21.90;93.70
49579;DHT22;35483;50.828;3.228;2023-05-07T13:55:44;21.90;93.70
49579;DHT22;35483;50.828;3.228;2023-05-07T13:58:10;21.80;93.80
49579;DHT22;35483;50.828;3.228;2023-05-07T14:00:37;21.80;93.80
49579;DHT22;35483;50.828;3.228;2023-05-07T14:03:04;22.00;93.80
49579;DHT22;35483;50.828;3.228;2023-05-07T14:05:30;21.90;93.80
49579;DHT22;35483;50.828;3.228;2023-05-07T14:07:59;21.90;93.80
49579;DHT22;35483;50.828;3.228;2023-05-07T14:10:25;21.90;93.90
49579;DHT22;35483;50.828;3.228;2023-05-07T14:12:52;21.90;93.90
49579;DHT22;35483;50.828;3.228;2023-05-07T14:15:18;21.90;93.80
49579;DHT22;35483;50.828;3.228;2023-05-07T14:17:44;22.00;93.80
49579;DHT22;35483;50.828;3.228;2023-05-07T14:20:11;21.90;93.80
49579;DHT22;35483;50.828;3.228;2023-05-07T14:22:37;21.90;93.80
49579;DHT22;35483;50.828;3.228;2023-05-07T14:25:04;22.00;93.70
49579;DHT22;35483;50.828;3.228;2023-05-07T14:27:30;21.90;93.80
49579;DHT22;35483;50.828;3.228;2023-05-07T14:29:56;21.90;93.80
49579;DHT22;35483;50.828;3.228;2023-05-07T14:32:22;21.80;93.80
49579;DHT22;35483;50.828;3.228;2023-05-07T14:34:50;21.90;93.80
49579;DHT22;35483;50.828;3.228;2023-05-07T14:37:16;21.90;93.80
49579;DHT22;35483;50.828;3.228;2023-05-07T14:39:43;21.90;93.70
49579;DHT22;35483;50.828;3.228;2023-05-07T14:42:09;22.00;93.70
49579;DHT22;35483;50.828;3.228;2023-05-07T14:44:35;22.00;93.70
49579;DHT22;35483;50.828;3.228;2023-05-07T14:47:02;22.20;93.70
49579;DHT22;35483;50.828;3.228;2023-05-07T14:49:28;22.20;93.70
49579;DHT22;35483;50.828;3.228;2023-05-07T14:51:56;22.30;93.60
49579;DHT22;35483;50.828;3.228;2023-05-07T14:54:22;22.50;93.60
49579;DHT22;35483;50.828;3.228;2023-05-07T14:56:48;22.50;93.50
49579;DHT22;35483;50.828;3.228;2023-05-07T14:59:14;22.60;93.50
49579;DHT22;35483;50.828;3.228;2023-05-07T15:01:42;22.60;93.50
49579;DHT22;35483;50.828;3.228;2023-05-07T15:04:11;22.50;93.50
49579;DHT22;35483;50.828;3.228;2023-05-07T15:06:37;22.40;93.60
49579;DHT22;35483;50.828;3.228;2023-05-07T15:09:03;22.40;93.60
49579;DHT22;35483;50.828;3.228;2023-05-07T15:11:29;22.30;93.70
49579;DHT22;35483;50.828;3.228;2023-05-07T15:13:55;22.40;93.70
49579;DHT22;35483;50.828;3.228;2023-05-07T15:16:22;22.40;93.60
49579;DHT22;35483;50.828;3.228;2023-05-07T15:18:48;22.40;93.40
49579;DHT22;35483;50.828;3.228;2023-05-07T15:21:15;22.50;93.40
49579;DHT22;35483;50.828;3.228;2023-05-07T15:23:41;22.50;93.40
49579;DHT22;35483;50.828;3.228;2023-05-07T15:26:07;22.60;93.40
49579;DHT22;35483;50.828;3.228;2023-05-07T15:28:34;22.70;93.30
49579;DHT22;35483;50.828;3.228;2023-05-07T15:31:00;22.80;93.20
49579;DHT22;35483;50.828;3.228;2023-05-07T15:33:27;22.80;93.10
49579;DHT22;35483;50.828;3.228;2023-05-07T15:35:53;23.00;93.10
49579;DHT22;35483;50.828;3.228;2023-05-07T15:38:19;22.90;93.10
49579;DHT22;35483;50.828;3.228;2023-05-07T15:40:45;22.80;93.10
49579;DHT22;35483;50.828;3.228;2023-05-07T15:43:11;22.70;93.20
49579;DHT22;35483;50.828;3.228;2023-05-07T15:45:41;22.60;93.20
49579;DHT22;35483;50.828;3.228;2023-05-07T15:48:10;22.50;93.30
49579;DHT22;35483;50.828;3.228;2023-05-07T15:50:37;22.40;93.20